createdAt,value
2019-03-30T00:00:41.963Z,22.10
2019-03-30T00:03:11.145Z,21.02
2019-03-30T00:05:39.401Z,22.30
2019-03-30T00:08:07.961Z,21.73
2019-03-30T00:10:36.190Z,22.40
2019-03-30T00:13:04.409Z,21.55
2019-03-30T00:15:32.975Z,19.77
2019-03-30T00:18:01.214Z,21.35
2019-03-30T00:20:29.453Z,20.77
2019-03-30T00:22:58.281Z,20.30
2019-03-30T00:25:27.163Z,22.87
2019-03-30T00:27:55.720Z,20.92
2019-03-30T00:30:24.234Z,23.92
2019-03-30T00:32:52.823Z,21.25
2019-03-30T00:35:21.723Z,20.50
2019-03-30T00:37:50.302Z,22.20
2019-03-30T00:40:18.875Z,20.32
2019-03-30T00:42:47.190Z,21.90
2019-03-30T00:45:15.699Z,20.35
2019-03-30T00:47:44.001Z,21.40
2019-03-30T00:50:12.293Z,22.65
2019-03-30T00:52:40.848Z,23.10
2019-03-30T00:55:09.077Z,22.20
2019-03-30T00:57:37.685Z,21.70
2019-03-30T01:00:06.195Z,20.90
2019-03-30T01:02:34.826Z,21.85
2019-03-30T01:05:03.077Z,21.35
2019-03-30T01:07:31.581Z,22.62
2019-03-30T01:10:00.282Z,21.20
2019-03-30T01:12:28.485Z,21.55
2019-03-30T01:14:56.707Z,21.02
2019-03-30T01:17:24.982Z,20.75
2019-03-30T01:20:02.791Z,22.20
2019-03-30T01:22:24.341Z,22.93
2019-03-30T01:24:52.831Z,23.40
2019-03-30T01:27:21.372Z,23.60
2019-03-30T01:29:50.260Z,22.63
2019-03-30T01:32:18.846Z,24.15
2019-03-30T01:34:47.230Z,23.55
2019-03-30T01:37:15.760Z,22.98
2019-03-30T01:39:44.703Z,21.30
2019-03-30T01:42:12.944Z,23.67
2019-03-30T01:44:41.669Z,22.00
2019-03-30T01:47:09.917Z,22.30
2019-03-30T01:49:38.601Z,22.70
2019-03-30T01:52:07.524Z,23.22
2019-03-30T01:54:35.834Z,24.25
2019-03-30T01:57:04.337Z,23.47
2019-03-30T01:59:32.572Z,23.00
2019-03-30T02:02:01.527Z,22.90
2019-03-30T02:04:30.137Z,24.60
2019-03-30T02:06:58.717Z,22.30
2019-03-30T02:09:27.301Z,23.85
2019-03-30T02:11:55.969Z,23.50
2019-03-30T02:14:24.531Z,24.65
2019-03-30T02:16:53.422Z,24.07
2019-03-30T02:19:21.999Z,23.20
2019-03-30T02:21:50.244Z,23.32
2019-03-30T02:24:18.507Z,22.73
2019-03-30T02:26:47.054Z,23.52
2019-03-30T02:29:15.748Z,23.80
2019-03-30T02:31:44.262Z,23.97
2019-03-30T02:34:12.490Z,23.70
2019-03-30T02:36:40.724Z,24.18
2019-03-30T02:39:09.462Z,24.77
2019-03-30T02:41:38.571Z,24.02
2019-03-30T02:44:06.859Z,24.45
2019-03-30T02:46:35.407Z,23.40
2019-03-30T02:49:03.612Z,24.70
2019-03-30T02:51:32.133Z,25.65
2019-03-30T02:54:00.777Z,24.05
2019-03-30T02:56:29.056Z,24.70
2019-03-30T02:58:57.597Z,25.00
2019-03-30T03:01:25.872Z,25.52
2019-03-30T03:03:54.125Z,24.90
2019-03-30T03:06:22.444Z,23.85
2019-03-30T03:08:50.968Z,24.80
2019-03-30T03:11:19.277Z,24.05
2019-03-30T03:13:47.846Z,23.50
2019-03-30T03:16:16.072Z,23.47
2019-03-30T03:18:44.329Z,23.98
2019-03-30T03:21:12.839Z,23.92
2019-03-30T03:23:41.136Z,24.30
2019-03-30T03:26:10.043Z,23.12
2019-03-30T03:28:38.933Z,23.05
2019-03-30T03:31:07.168Z,22.40
2019-03-30T03:33:35.407Z,22.75
2019-03-30T03:36:04.441Z,23.00
2019-03-30T03:38:32.721Z,23.87
2019-03-30T03:41:00.990Z,23.50
2019-03-30T03:43:29.209Z,23.70
2019-03-30T03:45:58.397Z,24.60
2019-03-30T03:48:26.644Z,24.02
2019-03-30T03:51:00.494Z,24.40
2019-03-30T03:53:30.207Z,23.80
2019-03-30T03:55:59.950Z,23.65
2019-03-30T03:58:30.361Z,23.83
2019-03-30T04:01:00.604Z,23.22
2019-03-30T04:03:30.379Z,23.90
2019-03-30T04:05:59.422Z,24.10
2019-03-30T04:08:29.388Z,24.45
2019-03-30T04:10:58.525Z,23.45
2019-03-30T04:13:28.221Z,23.27
2019-03-30T04:15:56.572Z,24.05
2019-03-30T04:18:25.149Z,25.08
2019-03-30T04:20:53.739Z,25.72
2019-03-30T04:23:22.528Z,25.20
2019-03-30T04:25:50.778Z,25.17
2019-03-30T04:28:19.377Z,25.88
2019-03-30T04:30:47.966Z,26.15
2019-03-30T04:33:16.852Z,27.10
2019-03-30T04:35:45.699Z,28.30
2019-03-30T04:38:14.653Z,27.13
2019-03-30T04:40:43.842Z,27.52
2019-03-30T04:43:12.079Z,26.23
2019-03-30T04:45:40.700Z,26.82
2019-03-30T04:48:09.279Z,27.87
2019-03-30T04:50:37.530Z,26.23
2019-03-30T04:53:06.033Z,25.93
2019-03-30T04:55:35.024Z,26.80
2019-03-30T04:58:03.596Z,26.50
2019-03-30T05:00:31.805Z,25.62
2019-03-30T05:03:00.378Z,26.10
2019-03-30T05:05:29.162Z,28.07
2019-03-30T05:07:57.437Z,28.92
2019-03-30T05:10:26.433Z,27.87
2019-03-30T05:12:54.661Z,28.45
2019-03-30T05:15:22.905Z,28.05
2019-03-30T05:17:51.973Z,26.23
2019-03-30T05:20:20.461Z,27.93
2019-03-30T05:22:51.282Z,27.62
2019-03-30T05:25:18.824Z,27.30
2019-03-30T05:27:47.070Z,26.33
2019-03-30T05:30:15.458Z,26.82
2019-03-30T05:32:43.782Z,27.35
2019-03-30T05:35:12.282Z,26.52
2019-03-30T05:37:40.921Z,28.50
2019-03-30T05:40:09.857Z,28.05
2019-03-30T05:42:38.351Z,27.73
2019-03-30T05:45:06.593Z,26.30
2019-03-30T05:47:35.197Z,27.53
2019-03-30T05:50:03.438Z,27.62
2019-03-30T05:52:31.725Z,27.37
2019-03-30T05:55:00.476Z,27.73
2019-03-30T05:57:29.135Z,28.42
2019-03-30T05:59:57.361Z,29.87
2019-03-30T06:02:25.936Z,28.70
2019-03-30T06:04:54.733Z,29.87
2019-03-30T06:07:22.988Z,28.23
2019-03-30T06:09:51.941Z,27.20
2019-03-30T06:12:20.518Z,26.80
2019-03-30T06:14:49.613Z,26.15
2019-03-30T06:17:17.877Z,27.58
2019-03-30T06:19:46.487Z,27.20
2019-03-30T06:22:14.732Z,26.50
2019-03-30T06:24:42.982Z,25.55
2019-03-30T06:27:11.926Z,25.68
2019-03-30T06:29:40.480Z,26.40
2019-03-30T06:32:08.706Z,26.33
2019-03-30T06:34:37.382Z,25.53
2019-03-30T06:37:05.650Z,25.50
2019-03-30T06:39:36.869Z,24.98
2019-03-30T06:42:04.149Z,24.63
2019-03-30T06:44:32.444Z,24.72
2019-03-30T06:47:01.009Z,25.00
2019-03-30T06:49:29.593Z,23.90
2019-03-30T06:51:57.843Z,23.60
2019-03-30T06:54:26.769Z,24.05
2019-03-30T06:56:55.348Z,24.00
2019-03-30T06:59:23.924Z,25.30
2019-03-30T07:01:52.721Z,25.15
2019-03-30T07:04:21.293Z,24.47
2019-03-30T07:06:49.537Z,24.92
2019-03-30T07:09:20.130Z,34.38
2019-03-30T07:11:50.121Z,25.92
2019-03-30T07:14:18.373Z,24.67
2019-03-30T07:16:47.504Z,23.60
2019-03-30T07:19:15.716Z,24.20
2019-03-30T07:21:44.741Z,24.35
2019-03-30T07:24:13.003Z,24.95
2019-03-30T07:26:41.818Z,23.80
2019-03-30T07:29:10.701Z,24.90
2019-03-30T07:31:39.233Z,28.62
2019-03-30T07:34:07.902Z,26.60
2019-03-30T07:36:36.481Z,24.98
2019-03-30T07:39:05.354Z,26.57
2019-03-30T07:41:33.853Z,24.15
2019-03-30T07:44:02.119Z,26.73
2019-03-30T07:46:30.708Z,27.42
2019-03-30T07:48:58.948Z,27.48
2019-03-30T07:51:27.558Z,27.15
2019-03-30T07:53:55.801Z,27.07
2019-03-30T07:56:24.034Z,25.80
2019-03-30T07:58:52.387Z,24.77
2019-03-30T08:01:20.645Z,24.05
2019-03-30T08:03:49.160Z,24.27
2019-03-30T08:06:17.713Z,21.80
2019-03-30T08:08:46.613Z,22.62
2019-03-30T08:11:14.877Z,22.40
2019-03-30T08:13:43.136Z,20.37
2019-03-30T08:16:11.378Z,20.80
2019-03-30T08:18:39.869Z,18.70
2019-03-30T08:21:08.626Z,18.10
2019-03-30T08:23:40.631Z,18.32
2019-03-30T08:26:07.650Z,18.27
2019-03-30T08:28:35.952Z,17.05
2019-03-30T08:31:04.692Z,16.77
2019-03-30T08:33:32.966Z,17.00
2019-03-30T08:36:01.476Z,16.27
2019-03-30T08:38:29.969Z,16.42
2019-03-30T08:40:58.705Z,16.00
2019-03-30T08:43:26.966Z,16.17
2019-03-30T08:45:55.196Z,16.70
2019-03-30T08:48:23.469Z,14.47
2019-03-30T08:50:51.729Z,14.13
2019-03-30T08:53:24.498Z,15.70
2019-03-30T08:55:53.192Z,15.33
2019-03-30T08:58:21.668Z,16.00
2019-03-30T09:00:52.550Z,15.83
2019-03-30T09:03:20.689Z,15.20
2019-03-30T09:05:48.938Z,16.10
2019-03-30T09:08:17.396Z,16.87
2019-03-30T09:10:45.737Z,16.50
2019-03-30T09:13:14.194Z,15.05
2019-03-30T09:15:42.417Z,16.45
2019-03-30T09:18:10.940Z,15.68
2019-03-30T09:20:40.299Z,38.53
2019-03-30T09:23:08.594Z,15.95
2019-03-30T09:25:37.157Z,24.05
2019-03-30T09:28:05.408Z,16.77
2019-03-30T09:30:33.717Z,19.37
2019-03-30T09:33:02.610Z,16.83
2019-03-30T09:35:30.896Z,16.23
2019-03-30T09:37:59.844Z,15.80
2019-03-30T09:40:28.116Z,15.35
2019-03-30T09:42:56.725Z,14.53
2019-03-30T09:45:25.062Z,14.60
2019-03-30T09:47:53.320Z,14.50
2019-03-30T09:50:21.971Z,13.57
2019-03-30T09:52:51.009Z,12.90
2019-03-30T09:55:19.517Z,13.62
2019-03-30T09:57:49.965Z,13.48
2019-03-30T10:00:18.224Z,13.78
2019-03-30T10:02:46.912Z,13.20
2019-03-30T10:05:15.153Z,13.50
2019-03-30T10:07:43.356Z,14.18
2019-03-30T10:10:12.388Z,15.60
2019-03-30T10:12:41.222Z,12.00
2019-03-30T10:15:09.525Z,12.10
2019-03-30T10:17:48.365Z,12.60
2019-03-30T10:20:16.978Z,12.30
2019-03-30T10:22:45.425Z,12.73
2019-03-30T10:25:14.819Z,11.90
2019-03-30T10:28:07.865Z,12.45
2019-03-30T10:30:36.601Z,14.93
2019-03-30T10:33:08.521Z,13.55
2019-03-30T10:35:38.803Z,13.05
2019-03-30T10:38:13.369Z,12.50
2019-03-30T10:40:54.486Z,13.18
2019-03-30T10:43:37.311Z,14.60
2019-03-30T10:46:16.083Z,11.25
2019-03-30T10:48:56.291Z,11.90
2019-03-30T10:51:28.738Z,11.83
2019-03-30T10:54:11.711Z,11.07
2019-03-30T10:56:48.941Z,11.28
2019-03-30T10:59:30.189Z,11.18
2019-03-30T11:02:13.703Z,11.40
2019-03-30T11:04:56.287Z,11.45
2019-03-30T11:07:37.893Z,10.50
2019-03-30T11:10:17.505Z,11.20
2019-03-30T11:12:59.136Z,10.90
2019-03-30T11:15:40.359Z,10.35
2019-03-30T11:18:21.106Z,10.40
2019-03-30T11:21:03.703Z,10.13
2019-03-30T11:23:44.595Z,11.05
2019-03-30T11:26:36.881Z,10.20
2019-03-30T11:29:22.307Z,10.70
2019-03-30T11:32:06.187Z,11.08
2019-03-30T11:34:48.307Z,11.45
2019-03-30T11:37:27.834Z,11.00
2019-03-30T11:40:11.481Z,10.60
2019-03-30T11:42:54.091Z,9.63
2019-03-30T11:45:35.526Z,9.80
2019-03-30T11:48:19.512Z,9.50
2019-03-30T11:51:05.574Z,9.20
2019-03-30T11:53:49.140Z,8.65
2019-03-30T11:56:34.383Z,8.25
2019-03-30T11:59:14.927Z,8.40
2019-03-30T12:01:55.038Z,8.45
2019-03-30T12:04:32.379Z,8.10
2019-03-30T12:07:00.947Z,8.30
2019-03-30T12:09:29.237Z,7.40
2019-03-30T12:11:58.094Z,7.53
2019-03-30T12:14:26.937Z,7.50
2019-03-30T12:16:55.065Z,7.03
2019-03-30T12:19:23.641Z,7.37
2019-03-30T12:21:51.845Z,7.60
2019-03-30T12:24:20.065Z,7.60
2019-03-30T12:26:49.124Z,6.72
2019-03-30T12:29:17.669Z,6.60
2019-03-30T12:31:46.270Z,6.10
2019-03-30T12:34:14.811Z,5.90
2019-03-30T12:36:43.070Z,5.72
2019-03-30T12:39:11.331Z,6.62
2019-03-30T12:41:39.888Z,6.47
2019-03-30T12:44:08.128Z,6.40
2019-03-30T12:46:36.359Z,6.25
2019-03-30T12:49:04.645Z,6.10
2019-03-30T12:51:33.145Z,6.70
2019-03-30T12:54:01.399Z,5.80
2019-03-30T12:56:29.675Z,6.35
2019-03-30T12:58:58.265Z,5.75
2019-03-30T13:01:27.218Z,6.50
2019-03-30T13:03:55.798Z,6.83
2019-03-30T13:06:24.034Z,6.67
2019-03-30T13:08:52.860Z,7.28
2019-03-30T13:11:21.096Z,7.25
2019-03-30T13:13:49.690Z,6.47
2019-03-30T13:16:17.929Z,6.62
2019-03-30T13:18:46.496Z,7.83
2019-03-30T13:21:14.771Z,7.25
2019-03-30T13:23:43.000Z,8.18
2019-03-30T13:26:11.320Z,7.20
2019-03-30T13:28:39.901Z,7.90
2019-03-30T13:31:08.673Z,8.28
2019-03-30T13:33:37.801Z,7.30
2019-03-30T13:36:10.653Z,7.90
2019-03-30T13:38:38.679Z,8.25
2019-03-30T13:41:07.194Z,7.60
2019-03-30T13:43:35.657Z,8.03
2019-03-30T13:46:04.207Z,8.10
2019-03-30T13:48:32.768Z,7.75
2019-03-30T13:51:00.980Z,8.40
2019-03-30T13:53:29.726Z,8.10
2019-03-30T13:55:58.469Z,8.30
2019-03-30T13:58:26.994Z,7.08
2019-03-30T14:00:55.470Z,6.80
2019-03-30T14:03:24.528Z,6.23
2019-03-30T14:05:53.258Z,6.47
2019-03-30T14:08:21.862Z,7.10
2019-03-30T14:10:50.522Z,8.73
2019-03-30T14:13:19.068Z,6.50
2019-03-30T14:15:47.349Z,7.40
2019-03-30T14:18:16.293Z,7.30
2019-03-30T14:20:45.193Z,8.08
2019-03-30T14:23:13.490Z,7.90
2019-03-30T14:25:42.308Z,6.70
2019-03-30T14:28:10.847Z,7.12
2019-03-30T14:30:39.426Z,6.00
2019-03-30T14:33:08.313Z,6.90
2019-03-30T14:35:37.356Z,6.25
2019-03-30T14:38:05.551Z,7.00
2019-03-30T14:40:34.154Z,6.78
2019-03-30T14:43:02.372Z,6.97
2019-03-30T14:45:30.580Z,6.50
2019-03-30T14:47:59.160Z,6.05
2019-03-30T14:50:27.989Z,6.45
2019-03-30T14:52:56.605Z,6.15
2019-03-30T14:55:25.220Z,5.87
2019-03-30T14:57:53.504Z,5.37
2019-03-30T15:00:21.854Z,5.67
2019-03-30T15:02:50.283Z,5.80
2019-03-30T15:05:18.950Z,6.05
2019-03-30T15:07:47.197Z,6.00
2019-03-30T15:10:15.436Z,5.75
2019-03-30T15:12:44.115Z,5.17
2019-03-30T15:15:12.818Z,5.80
2019-03-30T15:17:44.842Z,5.00
2019-03-30T15:20:14.439Z,4.90
2019-03-30T15:22:42.665Z,5.10
2019-03-30T15:25:11.194Z,5.60
2019-03-30T15:27:39.445Z,5.75
2019-03-30T15:30:08.089Z,6.20
2019-03-30T15:32:36.299Z,6.00
2019-03-30T15:35:04.799Z,5.45
2019-03-30T15:37:33.034Z,5.40
2019-03-30T15:40:01.244Z,5.60
2019-03-30T15:42:30.104Z,5.30
2019-03-30T15:44:58.346Z,5.45
2019-03-30T15:47:26.878Z,5.97
2019-03-30T15:49:55.152Z,6.28
2019-03-30T15:52:23.467Z,6.30
2019-03-30T15:54:52.058Z,6.30
2019-03-30T15:57:20.298Z,6.55
2019-03-30T15:59:49.164Z,6.80
2019-03-30T16:02:17.958Z,7.03
2019-03-30T16:04:46.513Z,6.40
2019-03-30T16:07:14.799Z,7.10
2019-03-30T16:09:43.408Z,7.00
2019-03-30T16:12:11.695Z,7.58
2019-03-30T16:14:40.458Z,7.20
2019-03-30T16:17:08.696Z,8.28
2019-03-30T16:19:37.487Z,7.05
2019-03-30T16:22:05.710Z,6.80
2019-03-30T16:24:34.289Z,6.95
2019-03-30T16:27:02.659Z,8.38
2019-03-30T16:29:30.931Z,9.48
2019-03-30T16:31:59.493Z,8.80
2019-03-30T16:34:27.749Z,8.88
2019-03-30T16:36:56.256Z,7.75
2019-03-30T16:39:24.470Z,7.70
2019-03-30T16:41:53.024Z,7.90
2019-03-30T16:44:21.524Z,8.10
2019-03-30T16:46:49.781Z,8.60
2019-03-30T16:49:18.332Z,8.90
2019-03-30T16:51:46.654Z,9.17
2019-03-30T16:54:14.940Z,10.53
2019-03-30T16:56:43.478Z,11.40
2019-03-30T16:59:13.884Z,11.35
2019-03-30T17:01:42.233Z,13.22
2019-03-30T17:04:10.508Z,12.07
2019-03-30T17:06:39.068Z,12.65
2019-03-30T17:09:08.189Z,14.13
2019-03-30T17:11:36.461Z,13.32
2019-03-30T17:14:05.365Z,13.03
2019-03-30T17:16:33.613Z,13.65
2019-03-30T17:19:01.982Z,12.78
2019-03-30T17:21:30.673Z,22.90
2019-03-30T17:23:59.591Z,20.75
2019-03-30T17:26:28.149Z,21.17
2019-03-30T17:28:58.138Z,20.60
2019-03-30T17:31:26.685Z,16.60
2019-03-30T17:33:55.262Z,13.68
2019-03-30T17:36:23.499Z,13.13
2019-03-30T17:38:51.757Z,13.13
2019-03-30T17:41:20.766Z,13.25
2019-03-30T17:43:49.444Z,14.53
2019-03-30T17:46:17.972Z,14.05
2019-03-30T17:48:46.192Z,14.55
2019-03-30T17:51:14.795Z,13.00
2019-03-30T17:53:43.300Z,12.80
2019-03-30T17:56:11.900Z,11.40
2019-03-30T17:58:43.408Z,11.97
2019-03-30T18:01:15.926Z,10.78
2019-03-30T18:03:44.249Z,11.45
2019-03-30T18:06:13.450Z,11.73
2019-03-30T18:08:42.504Z,12.78
2019-03-30T18:11:11.070Z,13.80
2019-03-30T18:13:39.289Z,14.07
2019-03-30T18:16:07.890Z,14.53
2019-03-30T18:18:36.060Z,16.10
2019-03-30T18:21:04.641Z,15.63
2019-03-30T18:23:32.898Z,15.83
2019-03-30T18:26:01.457Z,16.00
2019-03-30T18:28:30.082Z,15.85
2019-03-30T18:30:58.633Z,16.25
2019-03-30T18:33:27.495Z,14.63
2019-03-30T18:35:56.026Z,13.90
2019-03-30T18:38:25.206Z,12.55
2019-03-30T18:40:54.924Z,12.98
2019-03-30T18:43:23.815Z,12.65
2019-03-30T18:45:52.028Z,12.43
2019-03-30T18:48:20.660Z,12.30
2019-03-30T18:50:49.669Z,12.43
2019-03-30T18:53:17.942Z,14.53
2019-03-30T18:55:46.390Z,21.23
2019-03-30T18:58:14.953Z,21.80
2019-03-30T19:00:43.260Z,24.15
2019-03-30T19:03:11.804Z,21.62
2019-03-30T19:05:40.353Z,14.73
2019-03-30T19:08:08.926Z,20.23
2019-03-30T19:10:37.244Z,19.90
2019-03-30T19:13:05.919Z,17.77
2019-03-30T19:15:34.377Z,15.38
2019-03-30T19:18:03.307Z,15.50
2019-03-30T19:20:31.800Z,14.90
2019-03-30T19:23:00.082Z,15.00
2019-03-30T19:25:29.893Z,16.60
2019-03-30T19:27:58.315Z,17.17
2019-03-30T19:30:27.840Z,16.77
2019-03-30T19:32:56.115Z,16.60
2019-03-30T19:35:24.353Z,17.00
2019-03-30T19:37:52.617Z,16.90
2019-03-30T19:40:20.821Z,16.60
2019-03-30T19:42:49.102Z,17.12
2019-03-30T19:45:17.589Z,16.30
2019-03-30T19:47:46.152Z,17.20
2019-03-30T19:50:14.762Z,16.83
2019-03-30T19:52:43.656Z,16.65
2019-03-30T19:55:12.061Z,16.60
2019-03-30T19:57:40.298Z,17.85
2019-03-30T20:00:09.366Z,16.40
2019-03-30T20:02:37.862Z,17.55
2019-03-30T20:05:07.597Z,21.47
2019-03-30T20:07:35.815Z,18.23
2019-03-30T20:10:04.768Z,20.88
2019-03-30T20:12:33.349Z,20.82
2019-03-30T20:15:01.931Z,25.90
2019-03-30T20:17:30.204Z,24.02
2019-03-30T20:19:59.153Z,19.20
2019-03-30T20:22:27.399Z,19.77
2019-03-30T20:24:56.162Z,23.40
2019-03-30T20:27:24.441Z,19.62
2019-03-30T20:29:52.701Z,19.10
2019-03-30T20:32:20.951Z,23.65
2019-03-30T20:34:49.193Z,22.82
2019-03-30T20:37:17.712Z,35.40
2019-03-30T20:39:45.966Z,35.77
2019-03-30T20:42:14.518Z,37.60
2019-03-30T20:44:42.797Z,43.68
2019-03-30T20:47:11.053Z,42.27
2019-03-30T20:49:39.309Z,35.55
2019-03-30T20:52:07.773Z,30.00
2019-03-30T20:54:36.369Z,27.90
2019-03-30T20:57:04.894Z,30.05
2019-03-30T20:59:39.854Z,31.15
2019-03-30T21:02:03.023Z,28.73
2019-03-30T21:04:31.344Z,32.08
2019-03-30T21:06:59.602Z,31.10
2019-03-30T21:09:28.245Z,33.38
2019-03-30T21:11:56.578Z,32.53
2019-03-30T21:14:25.213Z,31.10
2019-03-30T21:16:53.550Z,32.00
2019-03-30T21:19:22.431Z,32.50
2019-03-30T21:21:51.245Z,32.10
2019-03-30T21:24:20.029Z,34.43
2019-03-30T21:26:48.526Z,37.07
2019-03-30T21:29:16.758Z,37.58
2019-03-30T21:31:44.990Z,40.83
2019-03-30T21:34:13.838Z,41.85
2019-03-30T21:36:42.701Z,47.88
2019-03-30T21:39:11.200Z,42.70
2019-03-30T21:41:39.708Z,42.25
2019-03-30T21:44:21.347Z,45.00
2019-03-30T21:46:39.336Z,43.55
2019-03-30T21:49:07.941Z,41.53
2019-03-30T21:51:36.518Z,43.33
2019-03-30T21:54:05.094Z,42.93
2019-03-30T21:56:33.317Z,42.70
2019-03-30T21:59:01.568Z,43.65
2019-03-30T22:01:30.129Z,43.60
2019-03-30T22:03:58.409Z,43.15
2019-03-30T22:06:26.621Z,42.33
2019-03-30T22:08:55.270Z,45.30
2019-03-30T22:11:23.856Z,45.27
2019-03-30T22:13:52.733Z,42.55
2019-03-30T22:16:21.296Z,43.80
2019-03-30T22:18:49.784Z,43.83
2019-03-30T22:21:18.046Z,44.40
2019-03-30T22:23:46.568Z,44.23
2019-03-30T22:26:15.156Z,43.70
2019-03-30T22:28:43.930Z,43.87
2019-03-30T22:31:12.509Z,43.73
2019-03-30T22:33:40.717Z,45.48
2019-03-30T22:36:08.960Z,44.00
2019-03-30T22:38:37.597Z,46.60
2019-03-30T22:41:05.838Z,45.05
2019-03-30T22:43:34.424Z,45.80
2019-03-30T22:46:07.681Z,44.30
2019-03-30T22:48:36.444Z,45.00
2019-03-30T22:51:04.677Z,47.75
2019-03-30T22:53:33.000Z,49.93
2019-03-30T22:56:01.588Z,45.78
2019-03-30T22:58:30.125Z,44.48
2019-03-30T23:01:10.383Z,44.45
2019-03-30T23:03:39.681Z,45.60
2019-03-30T23:06:07.958Z,46.60
2019-03-30T23:08:36.552Z,47.30
2019-03-30T23:11:05.218Z,47.27
2019-03-30T23:13:33.801Z,46.83
2019-03-30T23:16:02.402Z,45.73
2019-03-30T23:18:30.651Z,47.85
2019-03-30T23:20:58.885Z,48.00
2019-03-30T23:23:27.348Z,48.20
2019-03-30T23:25:55.638Z,47.35
2019-03-30T23:28:24.700Z,47.67
2019-03-30T23:30:54.849Z,45.83
2019-03-30T23:33:23.281Z,46.25
2019-03-30T23:35:51.975Z,45.73
2019-03-30T23:38:20.578Z,46.23
2019-03-30T23:40:48.816Z,44.42
2019-03-30T23:43:17.822Z,45.48
2019-03-30T23:45:46.312Z,42.43
2019-03-30T23:48:15.130Z,40.43
2019-03-30T23:50:43.409Z,41.98
2019-03-30T23:53:11.661Z,40.43
2019-03-30T23:55:40.341Z,38.37
2019-03-30T23:58:08.934Z,36.80
